sensor_id;sensor_type;location;lat;lon;timestamp;P1;durP1;ratioP1;P2;durP2;ratioP2
8656;SDS011;4366;50.764;7.184;2023-07-13T00:01:50;1.03;;;0.90;;
8656;SDS011;4366;50.764;7.184;2023-07-13T00:06:53;0.67;;;0.67;;
8656;SDS011;4366;50.764;7.184;2023-07-13T00:11:55;0.60;;;0.60;;
8656;SDS011;4366;50.764;7.184;2023-07-13T00:16:58;0.53;;;0.53;;
8656;SDS011;4366;50.764;7.184;2023-07-13T00:22:01;0.40;;;0.40;;
8656;SDS011;4366;50.764;7.184;2023-07-13T00:27:03;0.60;;;0.60;;
8656;SDS011;4366;50.764;7.184;2023-07-13T00:32:05;1.40;;;0.63;;
8656;SDS011;4366;50.764;7.184;2023-07-13T00:37:08;0.90;;;0.90;;
8656;SDS011;4366;50.764;7.184;2023-07-13T00:42:10;1.40;;;0.90;;
8656;SDS011;4366;50.764;7.184;2023-07-13T00:47:12;0.87;;;0.73;;
8656;SDS011;4366;50.764;7.184;2023-07-13T00:52:14;1.27;;;0.80;;
8656;SDS011;4366;50.764;7.184;2023-07-13T00:57:18;0.90;;;0.90;;
8656;SDS011;4366;50.764;7.184;2023-07-13T01:02:21;1.73;;;0.83;;
8656;SDS011;4366;50.764;7.184;2023-07-13T01:07:23;3.20;;;1.10;;
8656;SDS011;4366;50.764;7.184;2023-07-13T01:12:25;0.80;;;0.77;;
8656;SDS011;4366;50.764;7.184;2023-07-13T01:17:28;1.00;;;0.87;;
8656;SDS011;4366;50.764;7.184;2023-07-13T01:22:30;1.03;;;0.57;;
8656;SDS011;4366;50.764;7.184;2023-07-13T01:27:33;1.13;;;0.67;;
8656;SDS011;4366;50.764;7.184;2023-07-13T01:32:36;0.63;;;0.63;;
8656;SDS011;4366;50.764;7.184;2023-07-13T01:37:38;0.97;;;0.83;;
8656;SDS011;4366;50.764;7.184;2023-07-13T01:42:40;1.77;;;0.90;;
8656;SDS011;4366;50.764;7.184;2023-07-13T01:47:42;2.63;;;0.80;;
8656;SDS011;4366;50.764;7.184;2023-07-13T01:52:44;3.67;;;0.87;;
8656;SDS011;4366;50.764;7.184;2023-07-13T01:57:48;0.80;;;0.80;;
8656;SDS011;4366;50.764;7.184;2023-07-13T02:02:50;0.63;;;0.63;;
8656;SDS011;4366;50.764;7.184;2023-07-13T02:07:52;0.70;;;0.70;;
8656;SDS011;4366;50.764;7.184;2023-07-13T02:12:54;0.67;;;0.60;;
8656;SDS011;4366;50.764;7.184;2023-07-13T02:17:56;1.90;;;0.80;;
8656;SDS011;4366;50.764;7.184;2023-07-13T02:22:58;0.70;;;0.53;;
8656;SDS011;4366;50.764;7.184;2023-07-13T02:28:00;0.60;;;0.60;;
8656;SDS011;4366;50.764;7.184;2023-07-13T02:33:02;1.43;;;0.77;;
8656;SDS011;4366;50.764;7.184;2023-07-13T02:38:04;1.17;;;0.90;;
8656;SDS011;4366;50.764;7.184;2023-07-13T02:43:06;0.60;;;0.60;;
8656;SDS011;4366;50.764;7.184;2023-07-13T02:48:07;0.63;;;0.63;;
8656;SDS011;4366;50.764;7.184;2023-07-13T02:53:09;0.67;;;0.60;;
8656;SDS011;4366;50.764;7.184;2023-07-13T02:58:11;1.37;;;0.63;;
8656;SDS011;4366;50.764;7.184;2023-07-13T03:03:13;0.50;;;0.50;;
8656;SDS011;4366;50.764;7.184;2023-07-13T03:08:16;0.80;;;0.60;;
8656;SDS011;4366;50.764;7.184;2023-07-13T03:13:21;1.63;;;0.90;;
8656;SDS011;4366;50.764;7.184;2023-07-13T03:18:23;0.90;;;0.90;;
8656;SDS011;4366;50.764;7.184;2023-07-13T03:23:25;0.80;;;0.80;;
8656;SDS011;4366;50.764;7.184;2023-07-13T03:28:27;1.20;;;0.80;;
8656;SDS011;4366;50.764;7.184;2023-07-13T03:33:29;0.80;;;0.80;;
8656;SDS011;4366;50.764;7.184;2023-07-13T03:38:31;0.73;;;0.73;;
8656;SDS011;4366;50.764;7.184;2023-07-13T03:43:36;1.93;;;0.77;;
8656;SDS011;4366;50.764;7.184;2023-07-13T03:48:38;0.97;;;0.63;;
8656;SDS011;4366;50.764;7.184;2023-07-13T03:53:42;0.80;;;0.70;;
8656;SDS011;4366;50.764;7.184;2023-07-13T03:58:48;0.70;;;0.70;;
8656;SDS011;4366;50.764;7.184;2023-07-13T04:03:55;1.63;;;0.90;;
8656;SDS011;4366;50.764;7.184;2023-07-13T04:08:59;0.60;;;0.60;;
8656;SDS011;4366;50.764;7.184;2023-07-13T04:14:01;1.20;;;1.10;;
8656;SDS011;4366;50.764;7.184;2023-07-13T04:19:03;1.30;;;0.93;;
8656;SDS011;4366;50.764;7.184;2023-07-13T04:24:05;1.00;;;0.90;;
8656;SDS011;4366;50.764;7.184;2023-07-13T04:29:08;0.77;;;0.70;;
8656;SDS011;4366;50.764;7.184;2023-07-13T04:34:09;0.70;;;0.70;;
8656;SDS011;4366;50.764;7.184;2023-07-13T04:39:11;3.37;;;1.27;;
8656;SDS011;4366;50.764;7.184;2023-07-13T04:44:13;0.90;;;0.90;;
8656;SDS011;4366;50.764;7.184;2023-07-13T04:49:14;0.97;;;0.80;;
8656;SDS011;4366;50.764;7.184;2023-07-13T04:54:16;0.70;;;0.70;;
8656;SDS011;4366;50.764;7.184;2023-07-13T04:59:18;0.83;;;0.83;;
8656;SDS011;4366;50.764;7.184;2023-07-13T05:04:19;0.63;;;0.63;;
8656;SDS011;4366;50.764;7.184;2023-07-13T05:09:21;1.70;;;0.90;;
8656;SDS011;4366;50.764;7.184;2023-07-13T05:14:23;0.67;;;0.63;;
8656;SDS011;4366;50.764;7.184;2023-07-13T05:19:25;1.07;;;0.97;;
8656;SDS011;4366;50.764;7.184;2023-07-13T05:24:27;1.57;;;1.00;;
8656;SDS011;4366;50.764;7.184;2023-07-13T05:29:28;1.83;;;0.70;;
8656;SDS011;4366;50.764;7.184;2023-07-13T05:34:30;0.85;;;0.75;;
8656;SDS011;4366;50.764;7.184;2023-07-13T05:39:32;1.37;;;1.00;;
8656;SDS011;4366;50.764;7.184;2023-07-13T05:44:33;1.23;;;0.60;;
8656;SDS011;4366;50.764;7.184;2023-07-13T05:49:35;0.53;;;0.53;;
8656;SDS011;4366;50.764;7.184;2023-07-13T05:54:37;1.10;;;0.73;;
8656;SDS011;4366;50.764;7.184;2023-07-13T05:59:38;0.70;;;0.70;;
8656;SDS011;4366;50.764;7.184;2023-07-13T06:04:40;0.63;;;0.55;;
8656;SDS011;4366;50.764;7.184;2023-07-13T06:09:42;2.15;;;0.80;;
8656;SDS011;4366;50.764;7.184;2023-07-13T06:14:44;0.60;;;0.60;;
8656;SDS011;4366;50.764;7.184;2023-07-13T06:19:46;0.70;;;0.70;;
8656;SDS011;4366;50.764;7.184;2023-07-13T06:24:47;0.43;;;0.43;;
8656;SDS011;4366;50.764;7.184;2023-07-13T06:29:49;0.63;;;0.50;;
8656;SDS011;4366;50.764;7.184;2023-07-13T06:34:51;0.75;;;0.57;;
8656;SDS011;4366;50.764;7.184;2023-07-13T06:39:55;1.00;;;0.70;;
8656;SDS011;4366;50.764;7.184;2023-07-13T06:44:57;1.42;;;0.70;;
8656;SDS011;4366;50.764;7.184;2023-07-13T06:49:59;2.05;;;0.65;;
8656;SDS011;4366;50.764;7.184;2023-07-13T06:55:01;0.52;;;0.52;;
8656;SDS011;4366;50.764;7.184;2023-07-13T07:00:03;4.78;;;1.00;;
8656;SDS011;4366;50.764;7.184;2023-07-13T07:05:08;0.52;;;0.52;;
8656;SDS011;4366;50.764;7.184;2023-07-13T07:10:09;2.47;;;0.68;;
8656;SDS011;4366;50.764;7.184;2023-07-13T07:15:14;0.85;;;0.63;;
8656;SDS011;4366;50.764;7.184;2023-07-13T07:20:19;0.60;;;0.60;;
8656;SDS011;4366;50.764;7.184;2023-07-13T07:25:21;0.70;;;0.70;;
8656;SDS011;4366;50.764;7.184;2023-07-13T07:30:23;0.65;;;0.50;;
8656;SDS011;4366;50.764;7.184;2023-07-13T07:35:28;0.43;;;0.43;;
8656;SDS011;4366;50.764;7.184;2023-07-13T07:40:39;1.05;;;0.80;;
8656;SDS011;4366;50.764;7.184;2023-07-13T07:45:45;0.40;;;0.40;;
8656;SDS011;4366;50.764;7.184;2023-07-13T07:50:48;0.55;;;0.45;;
8656;SDS011;4366;50.764;7.184;2023-07-13T07:55:50;0.80;;;0.70;;
8656;SDS011;4366;50.764;7.184;2023-07-13T08:01:01;0.60;;;0.60;;
8656;SDS011;4366;50.764;7.184;2023-07-13T08:06:06;1.52;;;0.77;;
8656;SDS011;4366;50.764;7.184;2023-07-13T08:11:11;1.08;;;0.80;;
8656;SDS011;4366;50.764;7.184;2023-07-13T08:16:16;1.25;;;0.98;;
8656;SDS011;4366;50.764;7.184;2023-07-13T08:21:18;0.60;;;0.60;;
8656;SDS011;4366;50.764;7.184;2023-07-13T08:26:21;0.63;;;0.52;;
8656;SDS011;4366;50.764;7.184;2023-07-13T08:31:23;1.23;;;0.70;;
8656;SDS011;4366;50.764;7.184;2023-07-13T08:36:25;0.68;;;0.43;;
8656;SDS011;4366;50.764;7.184;2023-07-13T08:41:27;1.73;;;0.80;;
8656;SDS011;4366;50.764;7.184;2023-07-13T08:51:51;0.88;;;0.80;;
8656;SDS011;4366;50.764;7.184;2023-07-13T08:56:54;1.27;;;0.60;;
8656;SDS011;4366;50.764;7.184;2023-07-13T09:02:59;1.55;;;0.80;;
8656;SDS011;4366;50.764;7.184;2023-07-13T09:18:28;0.70;;;0.70;;
8656;SDS011;4366;50.764;7.184;2023-07-13T09:23:31;0.60;;;0.60;;
8656;SDS011;4366;50.764;7.184;2023-07-13T09:28:34;0.70;;;0.55;;
8656;SDS011;4366;50.764;7.184;2023-07-13T09:33:39;0.90;;;0.52;;
8656;SDS011;4366;50.764;7.184;2023-07-13T09:38:41;1.33;;;0.63;;
8656;SDS011;4366;50.764;7.184;2023-07-13T09:49:18;0.85;;;0.68;;
8656;SDS011;4366;50.764;7.184;2023-07-13T09:54:20;1.40;;;0.65;;
8656;SDS011;4366;50.764;7.184;2023-07-13T09:59:24;0.52;;;0.50;;
8656;SDS011;4366;50.764;7.184;2023-07-13T10:04:32;1.00;;;1.00;;
8656;SDS011;4366;50.764;7.184;2023-07-13T10:09:35;0.95;;;0.50;;
8656;SDS011;4366;50.764;7.184;2023-07-13T10:14:37;1.75;;;0.60;;
8656;SDS011;4366;50.764;7.184;2023-07-13T10:19:41;0.77;;;0.77;;
8656;SDS011;4366;50.764;7.184;2023-07-13T10:24:45;0.45;;;0.45;;
8656;SDS011;4366;50.764;7.184;2023-07-13T10:30:07;1.40;;;0.85;;
8656;SDS011;4366;50.764;7.184;2023-07-13T10:35:17;0.80;;;0.80;;
8656;SDS011;4366;50.764;7.184;2023-07-13T10:40:25;0.50;;;0.50;;
8656;SDS011;4366;50.764;7.184;2023-07-13T10:45:32;0.65;;;0.63;;
8656;SDS011;4366;50.764;7.184;2023-07-13T10:50:36;1.33;;;0.77;;
8656;SDS011;4366;50.764;7.184;2023-07-13T11:00:57;1.13;;;1.00;;
8656;SDS011;4366;50.764;7.184;2023-07-13T11:06:50;0.75;;;0.75;;
8656;SDS011;4366;50.764;7.184;2023-07-13T11:16:44;1.30;;;1.20;;
8656;SDS011;4366;50.764;7.184;2023-07-13T11:27:32;0.70;;;0.47;;
8656;SDS011;4366;50.764;7.184;2023-07-13T11:32:37;0.68;;;0.68;;
8656;SDS011;4366;50.764;7.184;2023-07-13T11:37:39;0.40;;;0.40;;
8656;SDS011;4366;50.764;7.184;2023-07-13T11:42:41;0.32;;;0.32;;
8656;SDS011;4366;50.764;7.184;2023-07-13T11:47:42;0.70;;;0.70;;
8656;SDS011;4366;50.764;7.184;2023-07-13T11:52:44;0.40;;;0.40;;
8656;SDS011;4366;50.764;7.184;2023-07-13T11:57:49;0.50;;;0.50;;
8656;SDS011;4366;50.764;7.184;2023-07-13T12:03:01;0.60;;;0.57;;
8656;SDS011;4366;50.764;7.184;2023-07-13T12:08:10;0.47;;;0.40;;
8656;SDS011;4366;50.764;7.184;2023-07-13T12:13:24;0.80;;;0.60;;
8656;SDS011;4366;50.764;7.184;2023-07-13T12:18:29;0.70;;;0.60;;
8656;SDS011;4366;50.764;7.184;2023-07-13T12:23:32;0.50;;;0.50;;
8656;SDS011;4366;50.764;7.184;2023-07-13T12:28:37;0.73;;;0.73;;
8656;SDS011;4366;50.764;7.184;2023-07-13T12:33:40;2.67;;;0.68;;
8656;SDS011;4366;50.764;7.184;2023-07-13T12:38:44;1.08;;;0.50;;
8656;SDS011;4366;50.764;7.184;2023-07-13T12:43:47;0.57;;;0.57;;
8656;SDS011;4366;50.764;7.184;2023-07-13T12:48:50;0.82;;;0.70;;
8656;SDS011;4366;50.764;7.184;2023-07-13T12:54:17;1.50;;;0.98;;
8656;SDS011;4366;50.764;7.184;2023-07-13T12:59:21;0.60;;;0.60;;
8656;SDS011;4366;50.764;7.184;2023-07-13T13:04:24;2.33;;;0.82;;
8656;SDS011;4366;50.764;7.184;2023-07-13T13:09:25;0.63;;;0.63;;
8656;SDS011;4366;50.764;7.184;2023-07-13T13:14:27;0.55;;;0.55;;
8656;SDS011;4366;50.764;7.184;2023-07-13T13:19:29;0.43;;;0.40;;
8656;SDS011;4366;50.764;7.184;2023-07-13T13:24:32;1.23;;;0.68;;
8656;SDS011;4366;50.764;7.184;2023-07-13T13:29:39;0.60;;;0.60;;
8656;SDS011;4366;50.764;7.184;2023-07-13T13:34:41;0.60;;;0.60;;
8656;SDS011;4366;50.764;7.184;2023-07-13T13:39:43;0.73;;;0.50;;
8656;SDS011;4366;50.764;7.184;2023-07-13T13:45:03;0.80;;;0.80;;
8656;SDS011;4366;50.764;7.184;2023-07-13T13:50:23;1.35;;;0.63;;
8656;SDS011;4366;50.764;7.184;2023-07-13T13:55:25;3.35;;;0.95;;
8656;SDS011;4366;50.764;7.184;2023-07-13T14:00:27;1.17;;;0.63;;
8656;SDS011;4366;50.764;7.184;2023-07-13T14:05:28;0.65;;;0.45;;
8656;SDS011;4366;50.764;7.184;2023-07-13T14:10:31;0.40;;;0.40;;
8656;SDS011;4366;50.764;7.184;2023-07-13T14:15:33;0.77;;;0.60;;
8656;SDS011;4366;50.764;7.184;2023-07-13T14:20:35;0.73;;;0.73;;
8656;SDS011;4366;50.764;7.184;2023-07-13T14:25:37;0.60;;;0.60;;
8656;SDS011;4366;50.764;7.184;2023-07-13T14:30:38;1.15;;;0.47;;
8656;SDS011;4366;50.764;7.184;2023-07-13T14:35:40;0.30;;;0.30;;
8656;SDS011;4366;50.764;7.184;2023-07-13T14:40:43;0.28;;;0.28;;
8656;SDS011;4366;50.764;7.184;2023-07-13T14:45:49;2.20;;;0.50;;
8656;SDS011;4366;50.764;7.184;2023-07-13T14:50:53;0.47;;;0.47;;
8656;SDS011;4366;50.764;7.184;2023-07-13T14:55:57;1.10;;;0.65;;
8656;SDS011;4366;50.764;7.184;2023-07-13T15:00:58;0.43;;;0.43;;
8656;SDS011;4366;50.764;7.184;2023-07-13T15:06:00;0.38;;;0.38;;
8656;SDS011;4366;50.764;7.184;2023-07-13T15:11:02;0.50;;;0.50;;
8656;SDS011;4366;50.764;7.184;2023-07-13T15:21:21;1.88;;;0.57;;
8656;SDS011;4366;50.764;7.184;2023-07-13T15:26:25;1.20;;;0.80;;
8656;SDS011;4366;50.764;7.184;2023-07-13T15:31:26;0.73;;;0.73;;
8656;SDS011;4366;50.764;7.184;2023-07-13T15:36:29;0.55;;;0.30;;
8656;SDS011;4366;50.764;7.184;2023-07-13T15:41:34;0.55;;;0.55;;
8656;SDS011;4366;50.764;7.184;2023-07-13T15:46:36;0.57;;;0.55;;
8656;SDS011;4366;50.764;7.184;2023-07-13T15:51:38;0.40;;;0.40;;
8656;SDS011;4366;50.764;7.184;2023-07-13T15:56:39;0.45;;;0.45;;
8656;SDS011;4366;50.764;7.184;2023-07-13T16:01:42;0.52;;;0.52;;
8656;SDS011;4366;50.764;7.184;2023-07-13T16:06:47;0.63;;;0.63;;
8656;SDS011;4366;50.764;7.184;2023-07-13T16:11:49;0.77;;;0.77;;
8656;SDS011;4366;50.764;7.184;2023-07-13T16:16:52;0.93;;;0.70;;
8656;SDS011;4366;50.764;7.184;2023-07-13T16:21:57;1.55;;;0.73;;
8656;SDS011;4366;50.764;7.184;2023-07-13T16:27:01;1.17;;;0.70;;
8656;SDS011;4366;50.764;7.184;2023-07-13T16:32:07;1.98;;;0.85;;
8656;SDS011;4366;50.764;7.184;2023-07-13T16:37:17;1.67;;;0.88;;
8656;SDS011;4366;50.764;7.184;2023-07-13T16:42:20;0.98;;;0.85;;
8656;SDS011;4366;50.764;7.184;2023-07-13T16:47:22;0.85;;;0.85;;
8656;SDS011;4366;50.764;7.184;2023-07-13T16:52:27;1.13;;;0.93;;
8656;SDS011;4366;50.764;7.184;2023-07-13T16:57:30;0.73;;;0.73;;
8656;SDS011;4366;50.764;7.184;2023-07-13T17:02:36;1.00;;;0.82;;
8656;SDS011;4366;50.764;7.184;2023-07-13T17:07:40;1.35;;;1.25;;
8656;SDS011;4366;50.764;7.184;2023-07-13T17:12:44;0.60;;;0.60;;
8656;SDS011;4366;50.764;7.184;2023-07-13T17:17:47;1.02;;;0.90;;
8656;SDS011;4366;50.764;7.184;2023-07-13T17:22:50;1.10;;;1.00;;
8656;SDS011;4366;50.764;7.184;2023-07-13T17:27:52;0.73;;;0.73;;
8656;SDS011;4366;50.764;7.184;2023-07-13T17:32:54;0.80;;;0.80;;
8656;SDS011;4366;50.764;7.184;2023-07-13T17:37:57;0.98;;;0.88;;
8656;SDS011;4366;50.764;7.184;2023-07-13T17:43:00;0.90;;;0.90;;
8656;SDS011;4366;50.764;7.184;2023-07-13T17:48:01;1.20;;;1.20;;
8656;SDS011;4366;50.764;7.184;2023-07-13T17:58:08;1.90;;;1.10;;
8656;SDS011;4366;50.764;7.184;2023-07-13T18:03:11;1.23;;;0.70;;
8656;SDS011;4366;50.764;7.184;2023-07-13T18:08:25;1.02;;;1.02;;
8656;SDS011;4366;50.764;7.184;2023-07-13T18:13:29;1.00;;;1.00;;
8656;SDS011;4366;50.764;7.184;2023-07-13T18:18:35;0.95;;;0.93;;
8656;SDS011;4366;50.764;7.184;2023-07-13T18:23:37;2.28;;;0.73;;
8656;SDS011;4366;50.764;7.184;2023-07-13T18:28:41;0.70;;;0.70;;
8656;SDS011;4366;50.764;7.184;2023-07-13T18:33:43;1.25;;;0.82;;
8656;SDS011;4366;50.764;7.184;2023-07-13T18:38:47;1.17;;;0.88;;
8656;SDS011;4366;50.764;7.184;2023-07-13T18:43:49;3.28;;;0.70;;
8656;SDS011;4366;50.764;7.184;2023-07-13T18:48:51;1.70;;;0.75;;
8656;SDS011;4366;50.764;7.184;2023-07-13T18:53:54;0.70;;;0.70;;
8656;SDS011;4366;50.764;7.184;2023-07-13T18:58:55;0.73;;;0.73;;
8656;SDS011;4366;50.764;7.184;2023-07-13T19:03:57;1.08;;;1.00;;
8656;SDS011;4366;50.764;7.184;2023-07-13T19:08:59;0.82;;;0.82;;
8656;SDS011;4366;50.764;7.184;2023-07-13T19:14:01;0.70;;;0.70;;
8656;SDS011;4366;50.764;7.184;2023-07-13T19:19:04;1.58;;;0.90;;
8656;SDS011;4366;50.764;7.184;2023-07-13T19:24:24;1.23;;;0.90;;
8656;SDS011;4366;50.764;7.184;2023-07-13T19:29:27;0.93;;;0.93;;
8656;SDS011;4366;50.764;7.184;2023-07-13T19:34:29;1.30;;;0.85;;
8656;SDS011;4366;50.764;7.184;2023-07-13T19:39:33;1.55;;;1.42;;
8656;SDS011;4366;50.764;7.184;2023-07-13T19:44:36;1.20;;;0.95;;
8656;SDS011;4366;50.764;7.184;2023-07-13T19:49:39;0.88;;;0.88;;
8656;SDS011;4366;50.764;7.184;2023-07-13T19:54:41;1.70;;;0.90;;
8656;SDS011;4366;50.764;7.184;2023-07-13T19:59:42;1.23;;;1.13;;
8656;SDS011;4366;50.764;7.184;2023-07-13T20:04:47;2.15;;;1.05;;
8656;SDS011;4366;50.764;7.184;2023-07-13T20:09:49;0.88;;;0.88;;
8656;SDS011;4366;50.764;7.184;2023-07-13T20:14:53;0.60;;;0.60;;
8656;SDS011;4366;50.764;7.184;2023-07-13T20:19:55;1.95;;;0.80;;
8656;SDS011;4366;50.764;7.184;2023-07-13T20:25:00;0.90;;;0.90;;
8656;SDS011;4366;50.764;7.184;2023-07-13T20:30:02;0.95;;;0.95;;
8656;SDS011;4366;50.764;7.184;2023-07-13T20:35:21;1.30;;;1.10;;
8656;SDS011;4366;50.764;7.184;2023-07-13T20:40:27;2.40;;;1.20;;
8656;SDS011;4366;50.764;7.184;2023-07-13T20:45:31;0.82;;;0.82;;
8656;SDS011;4366;50.764;7.184;2023-07-13T20:50:34;1.00;;;1.00;;
8656;SDS011;4366;50.764;7.184;2023-07-13T20:55:36;0.90;;;0.83;;
8656;SDS011;4366;50.764;7.184;2023-07-13T21:00:38;2.10;;;0.87;;
8656;SDS011;4366;50.764;7.184;2023-07-13T21:05:41;0.90;;;0.90;;
8656;SDS011;4366;50.764;7.184;2023-07-13T21:10:44;0.90;;;0.90;;
8656;SDS011;4366;50.764;7.184;2023-07-13T21:15:46;2.00;;;1.03;;
8656;SDS011;4366;50.764;7.184;2023-07-13T21:20:52;1.70;;;0.90;;
8656;SDS011;4366;50.764;7.184;2023-07-13T21:25:55;1.07;;;1.00;;
8656;SDS011;4366;50.764;7.184;2023-07-13T21:31:00;1.37;;;1.27;;
8656;SDS011;4366;50.764;7.184;2023-07-13T21:36:03;1.80;;;1.37;;
8656;SDS011;4366;50.764;7.184;2023-07-13T21:41:28;1.40;;;1.30;;
8656;SDS011;4366;50.764;7.184;2023-07-13T21:46:29;1.17;;;1.17;;
8656;SDS011;4366;50.764;7.184;2023-07-13T21:51:31;1.53;;;1.20;;
8656;SDS011;4366;50.764;7.184;2023-07-13T21:56:35;2.10;;;1.77;;
8656;SDS011;4366;50.764;7.184;2023-07-13T22:01:37;1.00;;;1.00;;
8656;SDS011;4366;50.764;7.184;2023-07-13T22:06:38;1.30;;;1.20;;
8656;SDS011;4366;50.764;7.184;2023-07-13T22:11:40;1.33;;;1.07;;
8656;SDS011;4366;50.764;7.184;2023-07-13T22:16:42;1.63;;;0.90;;
8656;SDS011;4366;50.764;7.184;2023-07-13T22:21:44;1.10;;;1.10;;
8656;SDS011;4366;50.764;7.184;2023-07-13T22:26:46;1.30;;;1.30;;
8656;SDS011;4366;50.764;7.184;2023-07-13T22:31:47;1.23;;;1.23;;
8656;SDS011;4366;50.764;7.184;2023-07-13T22:36:49;1.30;;;1.20;;
8656;SDS011;4366;50.764;7.184;2023-07-13T22:41:51;1.40;;;1.30;;
8656;SDS011;4366;50.764;7.184;2023-07-13T22:46:53;1.33;;;1.23;;
8656;SDS011;4366;50.764;7.184;2023-07-13T22:51:58;1.97;;;1.40;;
8656;SDS011;4366;50.764;7.184;2023-07-13T22:57:01;1.40;;;1.30;;
8656;SDS011;4366;50.764;7.184;2023-07-13T23:02:03;1.17;;;1.13;;
8656;SDS011;4366;50.764;7.184;2023-07-13T23:07:06;2.60;;;1.40;;
8656;SDS011;4366;50.764;7.184;2023-07-13T23:12:09;1.50;;;1.30;;
8656;SDS011;4366;50.764;7.184;2023-07-13T23:17:11;1.23;;;1.20;;
8656;SDS011;4366;50.764;7.184;2023-07-13T23:22:18;1.40;;;1.30;;
8656;SDS011;4366;50.764;7.184;2023-07-13T23:27:24;2.17;;;1.23;;
8656;SDS011;4366;50.764;7.184;2023-07-13T23:32:26;0.90;;;0.90;;
8656;SDS011;4366;50.764;7.184;2023-07-13T23:37:27;2.30;;;1.40;;
8656;SDS011;4366;50.764;7.184;2023-07-13T23:42:32;1.30;;;1.17;;
8656;SDS011;4366;50.764;7.184;2023-07-13T23:47:34;1.50;;;1.40;;
8656;SDS011;4366;50.764;7.184;2023-07-13T23:52:35;1.80;;;1.70;;
8656;SDS011;4366;50.764;7.184;2023-07-13T23:57:37;1.50;;;1.40;;
